North Prairie, WI (53153)

7:59 AM CST on December 05, 2016 (GMT -0600)
Milos Way | | Change Station

Elev 984 ft 42.91 °N, 88.41 °W | Updated 49 seconds ago

Overcast
Overcast
31.8 °F
Feels Like 32 °F
N
0.9
Wind Variable Wind from West
Gusts 2.0 mph

Today
High -- | Low -- °F
--% Chance of Precip.
Yesterday
High -- | Low -- °F
Precip. -- in
Pressure 29.97 in
Visibility 4.0 miles
Clouds Overcast 600 ft
Windchill 32 °F
Dew Point 31 °F
Humidity 96%
Rainfall 0.00 in
Snow Depth Not available.
7:09 AM 4:19 PM
Waxing Crescent, 32% visible
METAR KUES 051345Z 24006KT 4SM BR OVC006 M01/M01 A2997
Pressure 29.97 in
Visibility 4.0 miles
Clouds Overcast 600 ft
Windchill 32 °F
Dew Point 31 °F
Humidity 96%
Rainfall 0.00 in
Snow Depth Not available.
7:09 AM 4:19 PM
Waxing Crescent, 32% visible
METAR KUES 051345Z 24006KT 4SM BR OVC006 M01/M01 A2997

10-Day Weather Forecast

Almanac

Astronomy

Dec. 05, 2016 Rise Set
Actual Time
Civil Twilight
Nautical Twilight
Astronomical Twilight
Moon
Length of Visible Light
Length of Day
Tomorrow will be .
, % of the Moon is Illuminated

Today's Extremes

State Highs State Lows

Community

WunderPhotos

Upload Photos

1,955,780 photos uploaded!

WunderBlog® & News

Nearby

Air Quality

  Air Quality AQ Index Pollutant
Not available.

Snow Depth

Station Depth Elevation

Earthquake Activity

City Distance Mag. Time & Date
Minimum magnitude displayed is 2.5.

Coastal Water Temperatures

Place Temperature

Stations

Nearby Weather Stations

Station Location Temp. Windchill Dew Point Humidity Wind Precip. Elev Updated Type
                   

Watches & Warnings

There are currently no watches in effect.